EA1AQK-1
43.16.49N 005.35.99W
IN73EG aprs.fi
zuletzt gehoert:
2023-02-08T17:44:20Z
zuerst gehoert:
2022-06-05T14:30:51Z

APRS IN73EG, 2 Stunde(n), EA1AQK-1 [03:23:27, 0s].
EA1FLQ 43.22.00N 005.36.35WIN73EI 10.623km 354°N02:12:19ZMMDVM DVMega 430.9750/430.9750 CC1
EB1DGC 43.12.60N 005.45.59WIN73CF 15.142km 243°WSW02:12:09ZMMDVM MMDVM HS Hat 433.4500/433.4500 CC1
EA1IMW 43.14.36N 005.46.93WIN73CF 15.712km 257°WSW02:13:30ZGRUPO RADIO GALENA (GRG) 430.4500/430.4500 CC1(3EA1IMW-1)
ED1ZAD 43.07.90N 005.38.52WIN73ED 16.033km 194°SSW02:16:29ZED1ZAD-3 APRS Digi/Igate(3ED1ZAD-3)
EA1HWA 43.12.00N 005.47.40WIN73CE 17.813km 244°WSW02:12:32ZMMDVM MMDVM HS Hat 433.4500/433.4500 CC1
EA1HWX 43.19.29N 005.50.96WIN73BH 21.466km 285°WNW01:37:03ZDMO - UHF 439.7250/431.0000 CC11(3EA1HWX-2)
ED1ZAS 43.27.52N 005.40.17WIN73DL 21.717km 343°NNW02:11:40ZRD985 438.2250/430.6250 CC1
LEHU 43.22.63N 005.49.57WIN73CJ 22.210km 302°WNW02:00:06ZHelipuerto del HUCA: LEAS 090100Z VRB02KT CAVOK 05/05 Q1030=
EA1L 43.20.37N 005.51.13WIN73BI 22.275km 290°WNW02:20:05ZWind 161°/001kn, Böen bis 002kn, Temp 6.11c, Regen 0.0mm, letzte 24h 0.0mm, seit 0h 0.0mm, Baro 1028.5h, Hum: 0%(3EA1L-13)
ED1ZAE 43.27.99N 005.40.54WIN73DL 22.677km 343°NNW02:20:20Z400 M. PICO SAN MARTIN (GIJON) 13.1V,7.0C(3ED1ZAE-3)
EA1ABW 43.24.77N 005.47.77WIN73CJ 22.736km 314°NW02:13:10ZMMDVM MMDVM HS Hat 439.8250/439.8250 CC1(3EA1ABW-2)
EA1RCG 43.09.45N 005.49.78WIN73CD 22.975km 237°WSW02:13:23ZGRUPO RADIO GALENA (GRG) 430.4500/430.4500 CC1(3EA1RCG-3)
33D00 43.21.63N 005.51.13WIN73BI 23.162km 295°WNW02:01:49Z33-D-00 Protección Civil REMER / Delegación del Gobierno en Asturias
EA1JBU 43.21.85N 005.51.13WIN73BI 23.350km 296°WNW02:00:13ZEA1JBU(3EA1JBU-1)
EA1IPU 43.26.21N 005.46.62WIN73CK 23.643km 321°NW02:13:29ZMMDVM MMDVM HS Hat 439.8000/439.8000 CC1(3EA1IPU-1)
EA1HJA 43.21.47N 005.52.09WIN73BI 24.240km 293°WNW02:05:56Z IN73FL WX3IN1+ 2.0 - V=13.3V,TX TEMP=18.2C(3EA1HJA-2)
IN73FL WX3IN1+ 2.0 - V=14.0V,TX TEMP=42.1C(2EA1HJA)
EA4ACU 43.29.56N 005.38.92WIN73EL 25.007km 350°N02:14:17ZMMDVM MMDVM HS Hat 432.7000/432.7000 CC1(3EA4ACU-1)
EB1GEM 43.30.00N 005.36.07WIN73EM 25.423km 359°N02:14:56ZWX3in1Plus2.0 U=13.3V,T=??.?C/??.?F(3EB1GEM-3)
LEMR 43.25.83N 005.49.60WIN73CK 25.863km 313°NW02:00:07ZAerodromo de la Morgal (123.500MHz): LEAS 090100Z VRB02KT CAVOK 05/05 Q1030=
EA1FHR 43.28.72N 005.26.41WIN73GL 26.131km 28°NNE02:12:08ZMMDVM MMDVM HS Hat 439.1500/439.1500 CC1
ED1ZAU 43.23.04N 005.52.75WIN73BJ 26.299km 298°WNW02:11:41ZRD625 438.5000/430.9000 CC1
LEGM 43.26.15N 005.49.84WIN73CK 26.507km 314°NW02:00:06ZHelipuerto de La Morgal (123.500MHz): LEAS 090100Z VRB02KT CAVOK 05/05 Q1030=
EA1JAY 43.29.33N 005.26.78WIN73GL 26.931km 26°NNE02:15:03Z434.525MHz Nodo TETRA DMO(3EA1JAY-4)
EA1JAY(2EA1JAY-2)
EA1DZR 43.31.49N 005.40.00WIN73DM 28.797km 348°NNW02:13:27ZMMDVM MMDVM HS Hat 432.2000/432.2000 CC2(3EA1DZR-2)
MMDVM DMO 434.3500/434.3500 CC1(2EA1DZR-4)
MMDVM DVMega 431.1000/431.1000 CC1(2EA1DZR-1)
EA1FFA 43.31.53N 005.40.64WIN73DM 29.056km 347°NNW02:13:47ZMMDVM MMDVM HS Hat 438.8000/438.8000 CC1(3EA1FFA-1)
EA1JW 43.31.35N 005.28.83WIN73GM 29.347km 18°NNE02:13:22ZMMDVM MMDVM HS Hat 436.5000/436.5000 CC1(3EA1JW-3)
EA1IEJ 43.32.33N 005.38.92WIN73EM 30.049km 351°N02:13:37ZMMDVM MMDVM HS Hat 438.8500/438.8500 CC6(3EA1IEJ-1)
MMDVM DMO 222.3400/222.3400 CC1(2EA1IEJ-11)
EB1TK 43.32.22N 005.42.32WIN73DM 30.886km 343°NNW02:15:16ZWind 100°/002kn, Böen bis 003kn, Temp 8.33c, Regen 0.0mm, letzte 24h 0.0mm, seit 0h 0.0mm, Baro 1033.3h, Hum: 86%(3EB1TK-13)
EA1FPN 43.32.38N 005.42.17WIN73DM 31.093km 343°NNW02:12:55ZMMDVM MMDVM HS Hat 439.8750/439.8750 CC1
LEEL 43.32.98N 005.41.71WIN73DN 31.999km 345°NNW02:00:07ZHelipuerto de El Musel: LEAS 090100Z VRB02KT CAVOK 05/05 Q1030=
ED1ZAY 43.29.47N 005.56.54WIN73AL 37.329km 311°NW02:11:46ZRD625 438.3000/430.7000 CC1
EA1JBE 43.30.90N 005.16.15WIN73IM 37.655km 44°NE02:20:41ZMAIN QTH http://qrz.com/db/ea1jbe(3EA1JBE-1)
MAIN QTH http://qrz.com/db/ea1jbe(2EA1JBE-13)
ED1ZBF 43.19.16N 005.06.74WIN73KH 39.263km 82°E02:11:45ZRD625 438.4750/430.8750 CC1
EA1DZL 43.33.56N 005.55.78WIN73AN 41.973km 320°NW02:14:38ZMMDVM MMDVM HS Hat 438.8000/438.8000 CC1(3EA1DZL-1)

aprs.pl 5.0.011w DL3EL © 2006-2021 [10520546]